Time;durP1;ratioP1;P1;durP2;ratioP2;P2;SDS_P1;SDS_P2;PMS_P1;PMS_P2;Temp;Humidity;BMP_temperature;BMP_pressure;BME280_temperature;BME280_humidity;BME280_pressure;Samples;Min_cycle;Max_cycle;Signal;HPM_P1;HPM_P2
2021/03/19 00:01:41;;;;;;;63.60;15.00;;;1.90;99.90;;;-143.91;100.00;62816.50;4927490;28;100592;-67
2021/03/19 00:04:09;;;;;;;54.07;15.07;;;1.80;99.90;;;-143.91;100.00;62816.50;4927209;28;100117;-66
2021/03/19 00:06:36;;;;;;;37.97;14.67;;;1.80;99.90;;;-143.91;100.00;62816.50;4926812;28;100093;-67
2021/03/19 00:09:06;;;;;;;45.73;15.03;;;1.80;99.90;;;-143.91;100.00;62816.50;4925736;28;101580;-66
2021/03/19 00:11:34;;;;;;;34.30;13.90;;;3.00;99.90;;;-143.91;100.00;62816.50;4926579;28;100227;-66
2021/03/19 00:14:03;;;;;;;47.87;15.03;;;2.00;99.90;;;-143.91;100.00;62816.50;4926869;28;100109;-67
2021/03/19 00:16:29;;;;;;;34.73;13.10;;;1.90;99.90;;;-143.91;100.00;62816.50;4926334;28;100380;-66
2021/03/19 00:18:56;;;;;;;48.63;15.43;;;1.90;99.90;;;-143.91;100.00;62816.50;4929599;28;100822;-66
2021/03/19 00:21:23;;;;;;;37.57;14.47;;;1.80;99.90;;;-143.91;100.00;62816.50;4979964;28;100115;-65
2021/03/19 00:23:49;;;;;;;28.27;14.23;;;2.00;99.90;;;-143.91;100.00;62816.50;4926796;28;100056;-67
2021/03/19 00:26:17;;;;;;;27.43;13.93;;;1.90;99.90;;;-143.91;100.00;62816.50;4926855;28;100066;-67
2021/03/19 00:28:43;;;;;;;26.97;13.93;;;3.20;99.90;;;-143.91;100.00;62816.50;4926828;28;100798;-66
2021/03/19 00:31:11;;;;;;;51.80;15.10;;;2.10;99.90;;;-143.91;100.00;62816.50;4931472;28;101388;-65
2021/03/19 00:33:37;;;;;;;34.70;14.83;;;2.00;99.90;;;-143.91;100.00;62816.50;4926999;28;100203;-65
2021/03/19 00:36:04;;;;;;;59.70;15.97;;;1.90;99.90;;;-143.91;100.00;62816.50;4926211;28;100219;-66
2021/03/19 00:38:31;;;;;;;49.37;15.67;;;1.90;99.90;;;-143.91;100.00;62816.50;4926092;28;100999;-65
2021/03/19 00:40:57;;;;;;;38.60;15.70;;;2.00;99.90;;;-143.91;100.00;62816.50;4928437;28;101313;-64
2021/03/19 00:43:24;;;;;;;55.83;17.03;;;2.80;99.90;;;-143.91;100.00;62816.50;4934312;28;100210;-64
2021/03/19 00:45:51;;;;;;;43.37;14.30;;;3.10;99.90;;;-143.91;100.00;62816.50;4929856;28;100055;-65
2021/03/19 00:48:18;;;;;;;32.73;15.83;;;2.10;99.90;;;-143.91;100.00;62816.50;4927095;28;101023;-65
2021/03/19 00:50:45;;;;;;;46.30;16.83;;;0.60;99.90;;;-143.91;100.00;62816.50;4926479;28;101573;-65
2021/03/19 00:53:12;;;;;;;55.80;16.33;;;2.00;99.90;;;-143.91;100.00;62816.50;4926307;28;100037;-64
2021/03/19 00:55:39;;;;;;;57.93;15.77;;;2.30;99.90;;;-143.91;100.00;62816.50;4926270;28;100225;-63
2021/03/19 00:58:06;;;;;;;43.47;14.27;;;1.90;99.90;;;-143.91;100.00;62816.50;4925289;28;101205;-65
2021/03/19 01:00:35;;;;;;;40.73;15.80;;;2.10;99.90;;;-143.91;100.00;62816.50;4925816;28;101395;-63
2021/03/19 01:03:03;;;;;;;32.47;13.87;;;1.90;99.90;;;-143.91;100.00;62816.50;4926106;28;100109;-64
2021/03/19 01:05:35;;;;;;;36.13;14.97;;;2.00;99.90;;;-143.91;100.00;62816.50;4926215;28;100404;-63
2021/03/19 01:08:04;;;;;;;35.90;14.67;;;1.90;99.90;;;-143.91;100.00;62816.50;4925699;28;102690;-64
2021/03/19 01:10:33;;;;;;;36.13;13.43;;;3.10;99.90;;;-143.91;100.00;62816.50;4925707;28;100791;-63
2021/03/19 01:13:00;;;;;;;42.17;13.67;;;2.00;99.90;;;-143.91;100.00;62816.50;4926224;28;99980;-64
2021/03/19 01:15:28;;;;;;;37.67;14.60;;;2.00;99.90;;;-143.91;100.00;62816.50;4927248;28;99953;-63
2021/03/19 01:17:55;;;;;;;43.47;14.33;;;2.10;99.90;;;-143.91;100.00;62816.50;4926063;28;100627;-63
2021/03/19 01:20:24;;;;;;;31.93;15.27;;;2.00;99.90;;;-143.91;100.00;62816.50;4926323;28;100967;-64
2021/03/19 01:22:52;;;;;;;27.10;13.90;;;2.00;99.90;;;-143.91;100.00;62816.50;4926426;28;100103;-64
2021/03/19 01:25:21;;;;;;;28.63;14.53;;;1.90;99.90;;;-143.91;100.00;62816.50;4926107;28;100364;-64
2021/03/19 01:27:47;;;;;;;32.33;15.60;;;2.10;99.90;;;-143.91;100.00;62816.50;4925189;28;101728;-63
2021/03/19 01:30:18;;;;;;;25.00;14.40;;;1.90;99.90;;;-143.91;100.00;62816.50;4925680;28;101439;-64
2021/03/19 01:32:45;;;;;;;44.40;15.67;;;1.90;99.90;;;-143.91;100.00;62816.50;4925798;28;100421;-64
2021/03/19 01:35:14;;;;;;;34.80;15.40;;;2.10;99.90;;;-143.91;100.00;62816.50;4926025;28;100182;-64
2021/03/19 01:37:41;;;;;;;35.13;16.47;;;2.00;99.90;;;-143.91;100.00;62816.50;4925291;28;100843;-63
2021/03/19 01:40:13;;;;;;;38.27;16.97;;;2.00;99.90;;;-143.91;100.00;62816.50;4925629;28;100460;-64
2021/03/19 01:42:40;;;;;;;28.83;18.13;;;1.90;99.90;;;-143.91;100.00;62816.50;4925834;28;100101;-65
2021/03/19 01:45:54;;;;;;;29.97;16.57;;;2.10;99.90;;;-143.91;100.00;62816.50;4926242;28;99925;-63
2021/03/19 01:49:17;;;;;;;36.93;15.10;;;2.00;99.90;;;-143.91;100.00;62816.50;4925084;28;100814;-63
2021/03/19 01:52:40;;;;;;;20.77;12.53;;;2.00;99.90;;;-143.91;100.00;62816.50;4925216;28;100321;-65
2021/03/19 01:56:03;;;;;;;20.00;13.63;;;2.10;99.90;;;-143.91;100.00;62816.50;4925434;28;100400;-63
2021/03/19 01:59:25;;;;;;;37.07;14.80;;;2.00;99.90;;;-143.91;100.00;62816.50;4926052;28;100200;-63
2021/03/19 02:02:48;;;;;;;30.90;13.27;;;2.10;99.90;;;-143.91;100.00;62816.50;4925249;28;100587;-63
2021/03/19 02:06:10;;;;;;;41.20;15.13;;;2.00;99.90;;;-143.91;100.00;62816.50;4925718;28;100583;-64
2021/03/19 02:09:33;;;;;;;54.93;17.30;;;2.10;99.90;;;-143.91;100.00;62816.50;4923074;28;100376;-63
2021/03/19 02:12:56;;;;;;;93.00;19.37;;;2.10;99.90;;;-143.91;100.00;62816.50;4925537;28;100411;-63
2021/03/19 02:16:33;;;;;;;73.03;16.60;;;2.00;99.90;;;-143.91;100.00;62816.50;4924763;28;100244;-63
2021/03/19 02:19:56;;;;;;;37.03;15.93;;;2.00;99.90;;;-143.91;100.00;62816.50;4863383;28;100510;-63
2021/03/19 02:23:18;;;;;;;46.90;17.83;;;2.00;99.90;;;-143.91;100.00;62816.50;4866328;28;100386;-64
2021/03/19 02:26:41;;;;;;;44.33;15.53;;;1.90;99.90;;;-143.91;100.00;62816.50;4922626;28;100141;-64
2021/03/19 02:30:04;;;;;;;37.70;15.37;;;2.00;99.90;;;-143.91;100.00;62816.50;4925118;28;101182;-63
2021/03/19 02:32:32;;;;;;;37.67;15.50;;;2.00;99.90;;;-143.91;100.00;62816.50;4927583;28;101416;-62
2021/03/19 02:35:04;;;;;;;39.33;16.40;;;2.60;99.90;;;-143.91;100.00;62816.50;4928912;28;100327;-64
2021/03/19 02:37:36;;;;;;;40.80;15.27;;;2.00;99.90;;;-143.91;100.00;62816.50;4928278;28;100242;-63
2021/03/19 02:40:05;;;;;;;40.83;16.50;;;2.10;99.90;;;-143.91;100.00;62816.50;4928552;28;100891;-62
2021/03/19 02:42:32;;;;;;;33.27;14.80;;;2.00;99.90;;;-143.91;100.00;62816.50;4928884;28;100733;-64
2021/03/19 02:45:00;;;;;;;37.60;16.50;;;2.00;99.90;;;-143.91;100.00;62816.50;4928750;28;100225;-63
2021/03/19 02:47:27;;;;;;;31.40;13.97;;;2.10;99.90;;;-143.91;100.00;62816.50;4929206;28;100143;-62
2021/03/19 02:49:55;;;;;;;22.80;14.47;;;2.10;99.90;;;-143.91;100.00;62816.50;4927852;28;100979;-63
2021/03/19 02:52:24;;;;;;;28.97;14.73;;;2.10;99.90;;;-143.91;100.00;62816.50;4927451;28;100650;-63
2021/03/19 02:54:52;;;;;;;22.43;13.67;;;2.00;99.90;;;-143.91;100.00;62816.50;4928543;28;100450;-64
2021/03/19 02:57:19;;;;;;;21.60;13.73;;;2.00;99.90;;;-143.91;100.00;62816.50;4927342;28;100223;-63
2021/03/19 02:59:45;;;;;;;19.67;12.10;;;1.90;99.90;;;-143.91;100.00;62816.50;4926948;28;102047;-64
2021/03/19 03:02:12;;;;;;;17.60;13.23;;;2.00;99.90;;;-143.91;100.00;62816.50;4928102;28;100441;-63
2021/03/19 03:04:39;;;;;;;21.27;13.47;;;2.20;99.90;;;-143.91;100.00;62816.50;4928419;28;100135;-63
2021/03/19 03:07:06;;;;;;;17.20;12.83;;;2.20;99.90;;;-143.91;100.00;62816.50;4928399;28;100455;-63
2021/03/19 03:09:35;;;;;;;17.03;12.77;;;2.10;99.90;;;-143.91;100.00;62816.50;4927881;28;100848;-64
2021/03/19 03:12:03;;;;;;;14.77;12.03;;;2.00;99.90;;;-143.91;100.00;62816.50;4927932;28;100718;-64
2021/03/19 03:14:31;;;;;;;15.57;12.43;;;2.10;99.90;;;-143.91;100.00;62816.50;4927238;28;100041;-62
2021/03/19 03:17:01;;;;;;;14.17;11.83;;;2.10;99.90;;;-143.91;100.00;62816.50;4925970;28;100134;-64
2021/03/19 03:19:28;;;;;;;16.90;12.50;;;2.00;99.90;;;-143.91;100.00;62816.50;4927140;28;101816;-62
2021/03/19 03:21:55;;;;;;;16.83;13.50;;;2.10;99.90;;;-143.91;100.00;62816.50;4927677;28;100686;-63
2021/03/19 03:24:28;;;;;;;17.10;13.63;;;2.10;99.90;;;-143.91;100.00;62816.50;4927482;28;100302;-64
2021/03/19 03:26:55;;;;;;;17.77;13.53;;;2.10;99.90;;;-143.91;100.00;62816.50;4927552;28;100262;-63
2021/03/19 03:29:23;;;;;;;19.77;14.47;;;2.00;99.90;;;-143.91;100.00;62816.50;4925439;28;103251;-63
2021/03/19 03:31:50;;;;;;;18.27;14.00;;;2.40;99.90;;;-143.91;100.00;62816.50;4927445;28;100941;-63
2021/03/19 03:34:17;;;;;;;19.43;13.83;;;2.00;99.90;;;-143.91;100.00;62816.50;4927234;28;100226;-62
2021/03/19 03:36:44;;;;;;;18.80;13.90;;;2.10;99.90;;;-143.91;100.00;62816.50;4925349;28;100572;-62
2021/03/19 03:39:17;;;;;;;20.43;15.20;;;3.10;99.90;;;-143.91;100.00;62816.50;4926640;28;101299;-62
2021/03/19 03:41:45;;;;;;;21.10;14.43;;;3.20;99.90;;;-143.91;100.00;62816.50;4926456;28;101420;-62
2021/03/19 03:44:14;;;;;;;20.77;14.97;;;3.00;99.90;;;-143.91;100.00;62816.50;4927339;28;100387;-63
2021/03/19 03:46:44;;;;;;;19.03;15.07;;;1.80;99.90;;;-143.91;100.00;62816.50;4926602;28;100166;-62
2021/03/19 03:49:12;;;;;;;21.57;16.43;;;2.00;99.90;;;-143.91;100.00;62816.50;4927064;28;101367;-62
2021/03/19 03:51:38;;;;;;;22.10;16.20;;;2.00;99.90;;;-143.91;100.00;62816.50;4926562;28;100626;-63
2021/03/19 03:54:05;;;;;;;23.40;17.13;;;1.90;99.90;;;-143.91;100.00;62816.50;4927217;28;100294;-61
2021/03/19 03:56:32;;;;;;;25.17;17.47;;;2.00;99.90;;;-143.91;100.00;62816.50;4927184;28;100168;-63
2021/03/19 03:59:00;;;;;;;25.43;18.50;;;2.10;99.90;;;-143.91;100.00;62816.50;4926787;28;101628;-62
2021/03/19 04:01:27;;;;;;;21.90;15.67;;;2.10;99.90;;;-143.91;100.00;62816.50;4926537;28;101969;-62
2021/03/19 04:03:54;;;;;;;24.37;17.30;;;1.90;99.90;;;-143.91;100.00;62816.50;4927186;28;100362;-62
2021/03/19 04:06:21;;;;;;;23.73;16.07;;;2.00;99.90;;;-143.91;100.00;62816.50;4927639;28;100325;-62
2021/03/19 04:08:47;;;;;;;24.13;17.27;;;2.00;99.90;;;-143.91;100.00;62816.50;4930824;28;101412;-62
2021/03/19 04:11:17;;;;;;;27.10;17.93;;;1.90;99.90;;;-143.91;100.00;62816.50;4926779;28;101302;-62
2021/03/19 04:13:44;;;;;;;25.87;18.33;;;0.70;99.90;;;-143.91;100.00;62816.50;4927098;28;100227;-61
2021/03/19 04:16:12;;;;;;;25.77;18.17;;;2.00;99.90;;;-143.91;100.00;62816.50;4926224;28;100375;-62
2021/03/19 04:18:39;;;;;;;25.20;17.53;;;1.90;99.90;;;-143.91;100.00;62816.50;4926901;28;101804;-62
2021/03/19 04:21:08;;;;;;;23.77;16.50;;;1.90;99.90;;;-143.91;100.00;62816.50;4926924;28;100546;-62
2021/03/19 04:23:38;;;;;;;26.73;18.13;;;1.90;99.90;;;-143.91;100.00;62816.50;4927213;28;100188;-61
2021/03/19 04:26:07;;;;;;;28.53;18.97;;;2.00;99.90;;;-143.91;100.00;62816.50;4927388;28;100044;-61
2021/03/19 04:28:39;;;;;;;26.77;18.87;;;2.00;99.90;;;-143.91;100.00;62816.50;4925899;28;101661;-61
2021/03/19 04:31:07;;;;;;;27.57;18.53;;;2.10;99.90;;;-143.91;100.00;62816.50;4926832;28;100267;-62
2021/03/19 04:33:34;;;;;;;29.53;19.93;;;2.10;99.90;;;-143.91;100.00;62816.50;4927373;28;100305;-61
2021/03/19 04:36:19;;;;;;;28.07;19.17;;;3.30;99.90;;;-143.91;100.00;62816.50;4926758;28;100161;-62
2021/03/19 04:38:45;;;;;;;30.43;19.80;;;3.20;99.90;;;-143.91;100.00;62816.50;4926637;28;101216;-62
2021/03/19 04:41:13;;;;;;;28.57;20.07;;;2.10;99.90;;;-143.91;100.00;62816.50;4926660;28;100985;-62
2021/03/19 04:43:39;;;;;;;27.37;18.63;;;2.20;99.90;;;-143.91;100.00;62816.50;4927098;28;100307;-62
2021/03/19 04:46:06;;;;;;;26.10;18.13;;;2.00;99.90;;;-143.91;100.00;62816.50;4927046;28;100188;-60
2021/03/19 04:48:34;;;;;;;31.97;19.53;;;2.20;99.90;;;-143.91;100.00;62816.50;4926457;28;101094;-61
2021/03/19 04:51:00;;;;;;;28.83;19.50;;;2.20;99.90;;;-143.91;100.00;62816.50;4925711;28;100785;-62
2021/03/19 04:53:27;;;;;;;29.57;19.47;;;2.10;99.90;;;-143.91;100.00;62816.50;4925052;28;100133;-62
2021/03/19 04:55:53;;;;;;;33.53;23.40;;;3.30;99.90;;;-143.91;100.00;62816.50;4926445;28;100104;-62
2021/03/19 04:58:20;;;;;;;34.40;20.77;;;2.10;99.90;;;-143.91;100.00;62816.50;4926042;28;100993;-61
2021/03/19 05:00:46;;;;;;;32.43;21.33;;;2.10;99.90;;;-143.91;100.00;62816.50;4925491;28;102172;-62
2021/03/19 05:03:13;;;;;;;35.10;21.50;;;1.90;99.90;;;-143.91;100.00;62816.50;4926183;28;100607;-62
2021/03/19 05:05:40;;;;;;;32.97;22.10;;;2.00;99.90;;;-143.91;100.00;62816.50;4925680;28;100310;-62
2021/03/19 05:08:07;;;;;;;32.37;20.70;;;3.30;99.90;;;-143.91;100.00;62816.50;4925204;28;100833;-61
2021/03/19 05:10:37;;;;;;;34.93;22.53;;;2.00;99.90;;;-143.91;100.00;62816.50;4925899;28;100727;-62
2021/03/19 05:13:06;;;;;;;37.10;21.23;;;1.90;99.90;;;-143.91;100.00;62816.50;4925518;28;100149;-61
2021/03/19 05:15:35;;;;;;;46.43;29.67;;;2.10;99.90;;;-143.91;100.00;62816.50;4925234;28;100580;-62
2021/03/19 05:18:02;;;;;;;43.33;29.43;;;1.90;99.90;;;-143.91;100.00;62816.50;4922677;28;103542;-62
2021/03/19 05:20:29;;;;;;;44.87;29.47;;;2.10;99.90;;;-143.91;100.00;62816.50;4924807;28;101310;-63
2021/03/19 05:22:57;;;;;;;39.50;25.80;;;2.00;99.90;;;-143.91;100.00;62816.50;4925297;28;100212;-62
2021/03/19 05:25:28;;;;;;;42.20;27.67;;;2.00;99.90;;;-143.91;100.00;62816.50;4925420;28;100423;-63
2021/03/19 05:27:54;;;;;;;45.07;26.83;;;2.00;99.90;;;-143.91;100.00;62816.50;4925773;28;100814;-62
2021/03/19 05:30:24;;;;;;;42.97;25.83;;;1.90;99.90;;;-143.91;100.00;62816.50;4924770;28;101405;-62
2021/03/19 05:32:51;;;;;;;45.43;26.73;;;2.00;99.90;;;-143.91;100.00;62816.50;4925721;28;99976;-63
2021/03/19 05:35:21;;;;;;;44.20;27.37;;;3.90;99.90;;;-143.91;100.00;62816.50;4925399;28;100419;-61
2021/03/19 05:37:49;;;;;;;45.87;27.03;;;1.90;99.90;;;-143.91;100.00;62816.50;4922717;28;102010;-62
2021/03/19 05:40:29;;;;;;;47.57;28.90;;;1.90;99.90;;;-143.91;100.00;62816.50;4922076;28;100301;-62
2021/03/19 05:43:15;;;;;;;50.63;28.43;;;2.00;99.90;;;-143.91;100.00;62816.50;4922250;28;100392;-62
2021/03/19 05:45:42;;;;;;;46.37;27.30;;;2.90;99.90;;;-143.91;100.00;62816.50;4918702;28;100385;-63
2021/03/19 05:48:10;;;;;;;42.57;26.97;;;2.00;99.90;;;-143.91;100.00;62816.50;4920581;28;101448;-64
2021/03/19 05:50:37;;;;;;;46.30;26.27;;;2.00;99.90;;;-143.91;100.00;62816.50;4921727;28;101196;-62
2021/03/19 05:53:10;;;;;;;45.80;26.70;;;2.70;99.90;;;-143.91;100.00;62816.50;4922432;28;100272;-62
2021/03/19 05:55:39;;;;;;;45.67;27.00;;;1.90;99.90;;;-143.91;100.00;62816.50;4923049;28;100319;-62
2021/03/19 05:58:14;;;;;;;46.30;27.53;;;2.00;99.90;;;-143.91;100.00;62816.50;4922069;28;101914;-62
2021/03/19 06:00:40;;;;;;;47.03;27.30;;;2.00;99.90;;;-143.91;100.00;62816.50;4921903;28;101723;-63
2021/03/19 06:03:07;;;;;;;49.37;28.57;;;2.00;99.90;;;-143.91;100.00;62816.50;4922872;28;100319;-62
2021/03/19 06:05:59;;;;;;;45.33;26.83;;;1.80;99.90;;;-143.91;100.00;62816.50;4925870;28;100332;-61
2021/03/19 06:08:33;;;;;;;46.60;26.40;;;1.90;99.90;;;-143.91;100.00;62816.50;4925176;28;101519;-62
2021/03/19 06:11:20;;;;;;;48.43;26.10;;;1.90;99.90;;;-143.91;100.00;62816.50;4925140;28;100533;-62
2021/03/19 06:14:00;;;;;;;49.87;27.13;;;2.10;99.90;;;-143.91;100.00;62816.50;4926159;28;100238;-62
2021/03/19 06:16:37;;;;;;;43.93;24.33;;;2.00;99.90;;;-143.91;100.00;62816.50;4925253;28;100170;-63
2021/03/19 06:19:24;;;;;;;49.93;26.03;;;2.80;99.90;;;-143.91;100.00;62816.50;4925819;28;101100;-64
2021/03/19 06:22:02;;;;;;;43.87;24.07;;;2.00;99.90;;;-143.91;100.00;62816.50;4926051;28;101396;-63
2021/03/19 06:24:29;;;;;;;44.70;24.93;;;2.00;99.90;;;-143.91;100.00;62816.50;4926477;28;100760;-64
2021/03/19 06:27:18;;;;;;;46.40;24.60;;;2.10;99.90;;;-143.91;100.00;62816.50;4926462;28;100332;-63
2021/03/19 06:29:48;;;;;;;43.23;24.37;;;2.00;99.90;;;-143.91;100.00;62816.50;4925279;28;101937;-62
2021/03/19 06:32:27;;;;;;;45.87;25.97;;;2.10;99.90;;;-143.91;100.00;62816.50;4926881;28;101249;-63
2021/03/19 06:35:16;;;;;;;45.70;24.17;;;2.20;99.90;;;-143.91;100.00;62816.50;4925427;28;100318;-63
2021/03/19 06:37:47;;;;;;;42.17;23.67;;;2.00;99.90;;;-143.91;100.00;62816.50;4924706;28;100523;-63
2021/03/19 06:40:39;;;;;;;42.73;23.67;;;3.30;99.90;;;-143.91;100.00;62816.50;4924703;28;100869;-62
2021/03/19 06:43:19;;;;;;;41.07;22.30;;;2.20;99.90;;;-143.91;100.00;62816.50;4914922;28;101359;-63
2021/03/19 06:45:48;;;;;;;41.50;22.77;;;2.10;99.90;;;-143.91;100.00;62816.50;4924915;28;100220;-62
2021/03/19 06:48:31;;;;;;;45.23;23.77;;;2.00;99.90;;;-143.91;100.00;62816.50;4922902;28;100429;-64
2021/03/19 06:50:58;;;;;;;44.47;23.87;;;2.20;99.90;;;-143.91;100.00;62816.50;4924045;28;101534;-61
2021/03/19 06:53:29;;;;;;;43.80;24.10;;;2.20;99.90;;;-143.91;100.00;62816.50;4925017;28;101591;-62
2021/03/19 06:56:13;;;;;;;45.23;24.63;;;2.10;99.90;;;-143.91;100.00;62816.50;4924449;28;100599;-63
2021/03/19 06:58:46;;;;;;;39.97;21.97;;;2.00;99.90;;;-143.91;100.00;62816.50;4924453;28;100671;-63
2021/03/19 07:01:29;;;;;;;41.73;21.80;;;2.10;99.90;;;-143.91;100.00;62816.50;4924185;28;101873;-64
2021/03/19 07:04:40;;;;;;;41.23;22.33;;;2.10;99.90;;;-143.91;100.00;62816.50;4924330;28;100680;-64
2021/03/19 07:07:54;;;;;;;40.93;21.93;;;2.20;99.90;;;-143.91;100.00;62816.50;4924598;28;100264;-62
2021/03/19 07:10:38;;;;;;;35.03;20.97;;;3.20;99.90;;;-143.91;100.00;62816.50;4879563;28;100334;-62
2021/03/19 07:13:28;;;;;;;38.17;21.60;;;2.20;99.90;;;-143.91;100.00;62816.50;4865498;28;103628;-62
2021/03/19 07:16:08;;;;;;;37.60;21.20;;;2.20;99.90;;;-143.91;100.00;62816.50;4910496;28;101240;-63
2021/03/19 07:18:57;;;;;;;37.23;21.53;;;2.30;99.90;;;-143.91;100.00;62816.50;4924511;28;100607;-62
2021/03/19 07:22:01;;;;;;;36.40;21.67;;;2.10;99.90;;;-143.91;100.00;62816.50;4924662;28;100339;-63
2021/03/19 07:24:48;;;;;;;38.17;21.27;;;2.20;99.90;;;-143.91;100.00;62816.50;4917317;28;101666;-63
2021/03/19 07:27:49;;;;;;;36.90;21.17;;;2.40;99.90;;;-143.91;100.00;62816.50;4924033;28;100559;-62
2021/03/19 07:30:27;;;;;;;35.23;19.87;;;1.40;99.90;;;-143.91;100.00;62816.50;4924269;28;100337;-61
2021/03/19 07:33:28;;;;;;;35.70;21.20;;;2.30;99.90;;;-143.91;100.00;62816.50;4924206;28;100441;-63
2021/03/19 07:36:11;;;;;;;33.43;19.73;;;2.40;99.90;;;-143.91;100.00;62816.50;4910659;28;101756;-63
2021/03/19 07:39:18;;;;;;;36.00;21.93;;;2.50;99.90;;;-143.91;100.00;62816.50;4921615;28;102666;-63
2021/03/19 07:41:59;;;;;;;36.83;22.17;;;3.60;99.90;;;-143.91;100.00;62816.50;4924886;28;100196;-63
2021/03/19 07:44:36;;;;;;;39.57;22.70;;;2.70;99.90;;;-143.91;100.00;62816.50;4932107;28;100334;-62
2021/03/19 07:47:25;;;;;;;38.77;22.30;;;2.60;99.90;;;-143.91;100.00;62816.50;4924728;28;101184;-61
2021/03/19 07:50:11;;;;;;;36.97;21.37;;;2.80;99.90;;;-143.91;100.00;62816.50;4924261;28;100905;-62
2021/03/19 07:53:08;;;;;;;33.37;18.73;;;2.80;99.90;;;-143.91;100.00;62816.50;4923967;28;100549;-61
2021/03/19 07:55:56;;;;;;;35.87;19.27;;;2.90;99.90;;;-143.91;100.00;62816.50;4924073;28;100144;-62
2021/03/19 07:58:38;;;;;;;31.83;18.73;;;2.90;99.90;;;-143.91;100.00;62816.50;4923111;28;100772;-62
2021/03/19 08:01:18;;;;;;;29.03;18.07;;;2.90;99.90;;;-143.91;100.00;62816.50;4923303;28;100340;-62
2021/03/19 08:03:49;;;;;;;28.00;17.00;;;3.10;99.90;;;-143.91;100.00;62816.50;4923720;28;100572;-63
2021/03/19 08:06:27;;;;;;;25.17;16.33;;;4.10;99.90;;;-143.91;100.00;62816.50;4923487;28;100341;-61
2021/03/19 08:09:03;;;;;;;27.97;16.73;;;3.30;99.90;;;-143.91;100.00;62816.50;4923704;28;101049;-63
2021/03/19 08:11:44;;;;;;;28.00;18.73;;;3.00;99.90;;;-143.91;100.00;62816.50;4923984;28;100449;-62
2021/03/19 08:14:38;;;;;;;26.40;17.27;;;3.20;99.90;;;-143.91;100.00;62816.50;4924184;28;100313;-62
2021/03/19 08:17:20;;;;;;;25.03;16.83;;;3.30;99.90;;;-143.91;100.00;62816.50;4923852;28;102171;-62
2021/03/19 08:19:59;;;;;;;24.90;16.83;;;3.50;99.90;;;-143.91;100.00;62816.50;4924014;28;100618;-61
2021/03/19 08:22:34;;;;;;;26.07;16.70;;;3.30;99.90;;;-143.91;100.00;62816.50;4923568;28;100508;-64
2021/03/19 08:25:13;;;;;;;26.77;16.80;;;3.50;99.90;;;-143.91;100.00;62816.50;4923066;28;100047;-63
2021/03/19 08:27:46;;;;;;;20.07;13.70;;;3.50;99.90;;;-143.91;100.00;62816.50;4921831;28;100446;-62
2021/03/19 08:30:28;;;;;;;19.63;13.67;;;3.50;99.90;;;-143.91;100.00;62816.50;4923250;28;101451;-62
2021/03/19 08:33:06;;;;;;;16.37;11.93;;;3.50;99.90;;;-143.91;100.00;62816.50;4923025;28;100882;-62
2021/03/19 08:35:38;;;;;;;15.80;12.17;;;3.50;99.90;;;-143.91;100.00;62816.50;4919371;28;100332;-63
2021/03/19 08:38:24;;;;;;;12.80;10.40;;;3.30;99.90;;;-143.91;100.00;62816.50;4923693;28;100087;-63
2021/03/19 08:40:59;;;;;;;12.73;10.17;;;3.30;99.90;;;-143.91;100.00;62816.50;4921187;28;103463;-62
2021/03/19 08:43:32;;;;;;;12.63;9.93;;;3.30;99.90;;;-143.91;100.00;62816.50;4923481;28;100501;-62
2021/03/19 08:46:06;;;;;;;15.10;11.17;;;3.30;99.90;;;-143.91;100.00;62816.50;4921562;28;100460;-61
2021/03/19 08:48:35;;;;;;;15.57;10.87;;;3.30;99.90;;;-143.91;100.00;62816.50;4923426;28;100301;-62
2021/03/19 08:51:36;;;;;;;15.30;11.70;;;3.10;99.90;;;-143.91;100.00;62816.50;4921929;28;102246;-62
2021/03/19 08:54:26;;;;;;;14.23;11.20;;;3.40;99.90;;;-143.91;100.00;62816.50;4922882;28;101369;-62
2021/03/19 08:56:56;;;;;;;13.17;11.00;;;3.30;99.90;;;-143.91;100.00;62816.50;4923125;28;100305;-61
2021/03/19 08:59:53;;;;;;;19.30;11.60;;;3.20;99.90;;;-143.91;100.00;62816.50;4923075;28;100439;-62
2021/03/19 09:02:49;;;;;;;13.33;9.93;;;3.10;99.90;;;-143.91;100.00;62816.50;4922145;28;101793;-64
2021/03/19 09:05:31;;;;;;;12.60;9.93;;;3.10;99.90;;;-143.91;100.00;62816.50;4922694;28;100969;-62
2021/03/19 09:08:23;;;;;;;13.77;10.87;;;3.10;99.90;;;-143.91;100.00;62816.50;4922911;28;100493;-63
2021/03/19 09:11:11;;;;;;;15.00;10.30;;;3.10;99.90;;;-143.91;100.00;62816.50;4923325;28;100292;-63
2021/03/19 09:13:39;;;;;;;14.50;11.07;;;3.00;99.90;;;-143.91;100.00;62816.50;4923431;28;100875;-61
2021/03/19 09:16:51;;;;;;;14.90;9.43;;;3.10;99.90;;;-143.91;100.00;62816.50;4919704;28;100966;-62
2021/03/19 09:19:40;;;;;;;12.67;10.83;;;3.20;99.90;;;-143.91;100.00;62816.50;4923704;28;100237;-62
2021/03/19 09:22:40;;;;;;;12.47;9.73;;;4.60;99.90;;;-143.91;100.00;62816.50;4923070;28;100222;-60
2021/03/19 09:25:42;;;;;;;11.10;7.30;;;3.50;99.90;;;-143.91;100.00;62816.50;4922865;28;100520;-61
2021/03/19 09:28:32;;;;;;;10.17;8.13;;;3.60;99.90;;;-143.91;100.00;62816.50;4922035;28;101422;-60
2021/03/19 09:31:10;;;;;;;10.00;8.17;;;3.70;99.90;;;-143.91;100.00;62816.50;4922666;28;100541;-62
2021/03/19 09:34:20;;;;;;;8.37;6.97;;;3.60;99.90;;;-143.91;100.00;62816.50;4922311;28;100325;-61
2021/03/19 09:37:28;;;;;;;9.17;6.90;;;3.40;99.90;;;-143.91;100.00;62816.50;4922100;28;101680;-61
2021/03/19 09:40:14;;;;;;;8.40;7.03;;;3.90;99.90;;;-143.91;100.00;62816.50;4924805;28;100791;-59
2021/03/19 09:42:57;;;;;;;9.27;7.80;;;4.10;99.90;;;-143.91;100.00;62816.50;4925103;28;100432;-62
2021/03/19 09:45:48;;;;;;;12.17;8.57;;;3.90;99.90;;;-143.91;100.00;62816.50;4925804;28;100613;-61
2021/03/19 09:48:33;;;;;;;11.57;9.27;;;4.10;99.90;;;-143.91;100.00;62816.50;4924647;28;100938;-62
2021/03/19 09:51:38;;;;;;;13.13;9.23;;;4.80;99.90;;;-143.91;100.00;62816.50;4923237;28;102880;-62
2021/03/19 09:54:35;;;;;;;9.53;7.60;;;5.30;99.90;;;-143.91;100.00;62816.50;4926238;28;100155;-62
2021/03/19 09:57:14;;;;;;;10.67;8.93;;;6.10;99.90;;;-143.91;100.00;62816.50;4925703;28;100139;-61
2021/03/19 09:59:44;;;;;;;10.10;8.90;;;6.90;99.90;;;-143.91;100.00;62816.50;4926155;28;101675;-61
2021/03/19 10:02:28;;;;;;;11.37;8.70;;;7.10;99.90;;;-143.91;100.00;62816.50;4925461;28;100292;-61
2021/03/19 10:05:06;;;;;;;10.00;7.97;;;7.40;99.90;;;-143.91;100.00;62816.50;4926244;28;100156;-61
2021/03/19 10:07:34;;;;;;;11.93;7.97;;;7.60;99.90;;;-143.91;100.00;62816.50;4926226;28;100239;-60
2021/03/19 10:10:00;;;;;;;8.30;7.23;;;7.80;99.90;;;-143.91;100.00;62816.50;4923770;28;103088;-59
2021/03/19 10:12:32;;;;;;;6.67;5.90;;;8.00;99.90;;;-143.91;100.00;62816.50;4927437;28;100944;-60
2021/03/19 10:15:12;;;;;;;7.00;6.30;;;8.30;99.90;;;-143.91;100.00;62816.50;4921271;28;100852;-59
2021/03/19 10:17:40;;;;;;;7.47;6.00;;;8.60;99.90;;;-143.91;100.00;62816.50;4925089;28;100171;-59
2021/03/19 10:20:22;;;;;;;8.37;6.00;;;8.80;99.90;;;-143.91;100.00;62816.50;4925549;28;100653;-59
2021/03/19 10:22:53;;;;;;;7.00;6.10;;;9.50;99.90;;;-143.91;100.00;62816.50;4926576;28;100071;-58
2021/03/19 10:25:28;;;;;;;7.60;5.90;;;8.90;99.90;;;-143.91;100.00;62816.50;4928030;28;100042;-62
2021/03/19 10:27:57;;;;;;;7.53;6.10;;;8.60;99.90;;;-143.91;100.00;62816.50;4927352;28;100175;-62
2021/03/19 10:30:32;;;;;;;5.83;5.17;;;8.70;99.90;;;-143.91;100.00;62816.50;4929788;28;101612;-62